CheckWX is a tool to help pilots better visualize weather data.  It is not intended as a substitute for an official pre-flight weather briefing.

09:00:00 UTC

KTYS TAF
Mc Ghee Tyson Airport
Knoxville, Tennessee, USA
KTYS 180531Z 1806/1906 VRB03KT P6SM FEW060 SCT100 FM180800 VRB02KT P6SM VCSH SCT060 BKN100 TEMPO 1808/1811 -TSRA SCT035 BKN050CB FM181500 22004KT P6SM -SHRA SCT035 BKN100 PROB30 1815/1820 5SM TSRA BR BKN025CB FM182000 23007KT P6SM VCTS SCT040CB BKN120 FM190100 VRB03KT P6SM VCSH SCT050 BKN200

Jun-18@
06:00 UTC

Jun-18 @ 06:00 UTC

Jun-18@
08:00 UTC

Jun-18 @ 08:00 UTC

KTYS 180531Z 1806/1906 VRB03KT P6SM FEW060 SCT100

Expired

Wind
  • Variable at 3 KTS
Cloud Levels
  • Few at 6,000' AGL
  • Scattered at 10,000' AGL

Jun-18@
08:00 UTC

Jun-18 @ 08:00 UTC

Jun-18@
11:00 UTC

Jun-18 @ 11:00 UTC

TEMPO 1808/1811 -TSRA SCT035 BKN050CB

Temporary

Temporary Changes expected for less than half the time period

Conditions
Light Thunderstorm, Light Rain
Cloud Levels
  • Scattered at 3,500' AGL
  • Broken at 5,000' AGL

Jun-18@
08:00 UTC

Jun-18 @ 08:00 UTC

Jun-18@
15:00 UTC

Jun-18 @ 15:00 UTC

FM180800 VRB02KT P6SM VCSH SCT060 BKN100

From

From Standard forecast or significant change

Wind
  • Variable at 2 KTS
Cloud Levels
  • Scattered at 6,000' AGL
  • Broken at 10,000' AGL

Jun-18@
15:00 UTC

Jun-18 @ 15:00 UTC

Jun-18@
20:00 UTC

Jun-18 @ 20:00 UTC

FM181500 22004KT P6SM -SHRA SCT035 BKN100

From

From Standard forecast or significant change

Wind
  • 220° at 4 KTS
Conditions
Light Rain
Cloud Levels
  • Scattered at 3,500' AGL
  • Broken at 10,000' AGL

Jun-18@
15:00 UTC

Jun-18 @ 15:00 UTC

Jun-18@
20:00 UTC

Jun-18 @ 20:00 UTC

PROB30 1815/1820 5SM TSRA BR BKN025CB

Probable - 30% Likelihood

Probable - 30% Likelihood during this time.

Conditions
Thunderstorm, Rain, Mist
Cloud Levels
  • Broken at 2,500' AGL

Jun-18@
20:00 UTC

Jun-18 @ 20:00 UTC

Jun-19@
01:00 UTC

Jun-19 @ 01:00 UTC

FM182000 23007KT P6SM VCTS SCT040CB BKN120

From

From Standard forecast or significant change

Wind
  • 230° at 7 KTS
Conditions
Area Thunderstorm
Cloud Levels
  • Scattered at 4,000' AGL
  • Broken at 12,000' AGL

Jun-19@
01:00 UTC

Jun-19 @ 01:00 UTC

Jun-19@
06:00 UTC

Jun-19 @ 06:00 UTC

FM190100 VRB03KT P6SM VCSH SCT050 BKN200

From

From Standard forecast or significant change

Wind
  • Variable at 3 KTS
Cloud Levels
  • Scattered at 5,000' AGL
  • Broken at 20,000' AGL